Time;durP1;ratioP1;P1;durP2;ratioP2;P2;SDS_P1;SDS_P2;PMS_P1;PMS_P2;Temp;Humidity;BMP_temperature;BMP_pressure;BME280_temperature;BME280_humidity;BME280_pressure;Samples;Min_cycle;Max_cycle;Signal;HPM_P1;HPM_P2
2023/07/01 00:01:31;;;;;;;0.00;0.00;;;17.20;82.30;;;;;;5009962;28;20048;-69
2023/07/01 00:03:57;;;;;;;0.00;0.00;;;17.10;83.30;;;;;;5011067;28;20049;-69
2023/07/01 00:06:22;;;;;;;0.00;0.00;;;17.10;82.80;;;;;;5025839;28;20061;-69
2023/07/01 00:08:48;;;;;;;0.00;0.00;;;17.10;83.50;;;;;;5010925;28;20525;-69
2023/07/01 00:11:14;;;;;;;0.15;0.15;;;17.10;83.60;;;;;;5027202;28;20048;-69
2023/07/01 00:13:40;;;;;;;0.00;0.00;;;17.10;83.50;;;;;;5027538;28;20048;-68
2023/07/01 00:16:05;;;;;;;0.00;0.00;;;17.00;83.20;;;;;;5029156;28;20042;-68
2023/07/01 00:18:31;;;;;;;0.15;0.15;;;17.00;82.80;;;;;;5020962;28;20077;-69
2023/07/01 00:20:56;;;;;;;0.00;0.00;;;17.00;83.10;;;;;;5021029;28;20056;-69
2023/07/01 00:23:22;;;;;;;4.75;0.63;;;17.00;83.20;;;;;;5029215;28;20030;-69
2023/07/01 00:25:48;;;;;;;0.88;0.63;;;17.00;83.40;;;;;;5021829;28;20042;-69
2023/07/01 00:28:14;;;;;;;0.00;0.00;;;16.90;83.00;;;;;;5016546;28;20040;-69
2023/07/01 00:30:39;;;;;;;0.00;0.00;;;17.00;83.00;;;;;;5028496;28;20490;-68
2023/07/01 00:33:05;;;;;;;0.00;0.00;;;16.90;82.90;;;;;;5027941;28;20107;-69
2023/07/01 00:35:32;;;;;;;0.10;0.10;;;16.90;83.30;;;;;;5028654;28;20041;-69
2023/07/01 00:37:58;;;;;;;0.00;0.00;;;16.80;84.00;;;;;;5017931;28;20045;-68
2023/07/01 00:40:24;;;;;;;0.00;0.00;;;16.80;84.00;;;;;;5009756;28;20848;-68
2023/07/01 00:42:50;;;;;;;0.03;0.03;;;16.90;84.10;;;;;;5022961;28;20072;-69
2023/07/01 00:45:15;;;;;;;0.00;0.00;;;16.90;84.00;;;;;;5024675;28;20494;-69
2023/07/01 00:47:41;;;;;;;0.00;0.00;;;16.80;84.80;;;;;;5025749;28;20053;-69
2023/07/01 00:50:11;;;;;;;0.00;0.00;;;16.70;85.10;;;;;;5015602;28;20084;-69
2023/07/01 00:52:38;;;;;;;0.00;0.00;;;16.70;85.10;;;;;;5028869;28;20049;-69
2023/07/01 00:55:08;;;;;;;0.00;0.00;;;16.70;85.90;;;;;;5014982;28;20084;-69
2023/07/01 00:57:34;;;;;;;0.00;0.00;;;16.60;86.30;;;;;;5024016;28;20037;-69
2023/07/01 01:00:10;;;;;;;0.10;0.10;;;16.60;86.20;;;;;;5030075;28;20051;-69
2023/07/01 01:03:04;;;;;;;0.00;0.00;;;16.60;86.60;;;;;;5028587;28;20040;-69
2023/07/01 01:05:43;;;;;;;0.00;0.00;;;16.60;87.00;;;;;;5027180;28;20044;-69
2023/07/01 01:08:15;;;;;;;0.00;0.00;;;16.60;87.50;;;;;;5028408;28;20057;-69
2023/07/01 01:10:45;;;;;;;0.13;0.13;;;16.50;87.40;;;;;;5017860;28;20048;-69
2023/07/01 01:13:11;;;;;;;0.00;0.00;;;16.50;87.50;;;;;;5028021;28;20045;-68
2023/07/01 01:15:38;;;;;;;0.00;0.00;;;16.50;87.50;;;;;;5028662;28;20033;-69
2023/07/01 01:18:06;;;;;;;0.00;0.00;;;16.50;88.00;;;;;;5028591;28;20141;-68
2023/07/01 01:20:33;;;;;;;0.00;0.00;;;16.50;87.60;;;;;;5022909;28;20096;-68
2023/07/01 01:23:13;;;;;;;0.00;0.00;;;16.50;87.10;;;;;;5015191;28;20042;-68
2023/07/01 01:25:58;;;;;;;0.00;0.00;;;16.50;87.60;;;;;;5027752;28;20102;-68
2023/07/01 01:28:24;;;;;;;0.00;0.00;;;16.50;88.10;;;;;;5027385;28;20435;-68
2023/07/01 01:30:50;;;;;;;0.32;0.32;;;16.50;87.90;;;;;;5028432;28;20048;-68
2023/07/01 01:33:16;;;;;;;0.73;0.55;;;16.50;87.80;;;;;;5026678;28;20686;-69
2023/07/01 01:35:42;;;;;;;0.08;0.08;;;16.50;88.40;;;;;;5025839;28;20054;-69
2023/07/01 01:38:22;;;;;;;0.00;0.00;;;16.40;88.30;;;;;;5028060;28;20041;-68
2023/07/01 01:40:58;;;;;;;0.00;0.00;;;16.40;88.00;;;;;;5025773;28;20555;-68
2023/07/01 01:43:52;;;;;;;0.15;0.15;;;16.40;88.60;;;;;;5022821;28;20128;-68
2023/07/01 01:46:19;;;;;;;0.25;0.25;;;16.40;87.80;;;;;;5031906;28;20042;-68
2023/07/01 01:48:45;;;;;;;0.00;0.00;;;16.40;88.20;;;;;;5031906;28;20573;-68
2023/07/01 01:51:13;;;;;;;0.00;0.00;;;16.40;88.60;;;;;;5029967;28;20041;-68
2023/07/01 01:53:40;;;;;;;0.00;0.00;;;16.40;88.70;;;;;;5031708;28;20040;-68
2023/07/01 01:56:07;;;;;;;0.00;0.00;;;16.50;89.10;;;;;;5031317;28;20049;-68
2023/07/01 01:58:33;;;;;;;0.60;0.60;;;16.50;88.80;;;;;;5026153;28;20046;-69
2023/07/01 02:00:59;;;;;;;0.40;0.22;;;16.50;89.50;;;;;;5024849;28;20056;-69
2023/07/01 02:03:24;;;;;;;0.00;0.00;;;16.50;89.20;;;;;;5021434;28;20045;-68
2023/07/01 02:05:50;;;;;;;0.00;0.00;;;16.50;89.40;;;;;;5024188;28;20041;-69
2023/07/01 02:08:15;;;;;;;0.00;0.00;;;16.40;89.50;;;;;;5027804;28;20437;-68
2023/07/01 02:10:41;;;;;;;0.00;0.00;;;16.50;89.60;;;;;;5024653;28;20084;-68
2023/07/01 02:13:06;;;;;;;0.00;0.00;;;16.50;90.10;;;;;;5028354;28;20041;-68
2023/07/01 02:15:32;;;;;;;0.00;0.00;;;16.50;89.80;;;;;;5023757;28;20038;-68
2023/07/01 02:17:58;;;;;;;0.00;0.00;;;16.50;90.10;;;;;;5031286;28;20037;-68
2023/07/01 02:20:23;;;;;;;0.00;0.00;;;16.50;90.20;;;;;;5031644;28;20045;-68
2023/07/01 02:22:49;;;;;;;0.00;0.00;;;16.40;90.00;;;;;;5030649;28;20529;-68
2023/07/01 02:25:15;;;;;;;0.00;0.00;;;16.50;89.90;;;;;;5031104;28;20045;-68
2023/07/01 02:27:41;;;;;;;0.00;0.00;;;16.40;90.10;;;;;;5028617;28;20051;-68
2023/07/01 02:30:07;;;;;;;2.05;1.45;;;16.40;89.90;;;;;;5017502;28;20058;-68
2023/07/01 02:32:32;;;;;;;0.10;0.10;;;16.40;89.90;;;;;;5011846;28;20129;-68
2023/07/01 02:34:58;;;;;;;0.00;0.00;;;16.30;89.30;;;;;;5011730;28;20120;-69
2023/07/01 02:37:24;;;;;;;2.58;0.45;;;16.40;90.90;;;;;;5011422;28;20147;-69
2023/07/01 02:39:49;;;;;;;0.00;0.00;;;16.30;90.40;;;;;;5014454;28;20034;-69
2023/07/01 02:42:19;;;;;;;0.00;0.00;;;16.40;90.90;;;;;;5031548;28;20564;-70
2023/07/01 02:44:47;;;;;;;0.00;0.00;;;16.40;90.80;;;;;;5019260;28;20507;-70
2023/07/01 02:47:14;;;;;;;0.10;0.10;;;16.40;90.50;;;;;;5011469;28;20042;-69
2023/07/01 02:49:40;;;;;;;0.00;0.00;;;16.40;90.30;;;;;;5010404;28;20049;-69
2023/07/01 02:52:10;;;;;;;0.00;0.00;;;16.50;90.60;;;;;;5012842;28;20430;-70
2023/07/01 02:54:40;;;;;;;0.00;0.00;;;16.40;90.20;;;;;;5026342;28;20680;-69
2023/07/01 02:57:10;;;;;;;0.00;0.00;;;16.50;90.40;;;;;;5021927;28;20173;-69
2023/07/01 02:59:38;;;;;;;0.00;0.00;;;16.40;90.70;;;;;;5011412;28;20049;-69
2023/07/01 03:02:05;;;;;;;0.00;0.00;;;16.40;90.90;;;;;;5014384;28;20034;-68
2023/07/01 03:04:32;;;;;;;0.00;0.00;;;16.50;91.10;;;;;;5026028;28;20152;-69
2023/07/01 03:06:58;;;;;;;0.00;0.00;;;16.40;91.10;;;;;;5030189;28;20503;-69
2023/07/01 03:09:24;;;;;;;0.00;0.00;;;16.50;91.10;;;;;;5030060;28;20137;-70
2023/07/01 03:11:51;;;;;;;0.03;0.03;;;16.50;91.30;;;;;;5029890;28;20453;-69
2023/07/01 03:14:17;;;;;;;0.00;0.00;;;16.50;91.30;;;;;;5030323;28;20045;-69
2023/07/01 03:16:43;;;;;;;0.00;0.00;;;16.50;91.20;;;;;;5022364;28;20048;-69
2023/07/01 03:19:09;;;;;;;0.00;0.00;;;16.50;91.30;;;;;;5018009;28;20038;-69
2023/07/01 03:21:35;;;;;;;0.00;0.00;;;16.50;91.20;;;;;;5023578;28;20041;-69
2023/07/01 03:24:01;;;;;;;0.20;0.20;;;16.60;91.30;;;;;;5028541;28;20053;-69
2023/07/01 03:26:27;;;;;;;0.00;0.00;;;16.60;90.80;;;;;;5025381;28;20164;-69
2023/07/01 03:28:53;;;;;;;0.00;0.00;;;16.60;91.00;;;;;;5030102;28;20126;-69
2023/07/01 03:31:22;;;;;;;0.00;0.00;;;16.70;90.60;;;;;;5030021;28;20045;-70
2023/07/01 03:33:49;;;;;;;0.00;0.00;;;16.70;90.80;;;;;;5029982;28;20111;-70
2023/07/01 03:36:15;;;;;;;0.00;0.00;;;16.60;91.10;;;;;;5028594;28;20042;-69
2023/07/01 03:38:41;;;;;;;0.00;0.00;;;16.60;91.00;;;;;;5026741;28;20053;-70
2023/07/01 03:41:07;;;;;;;0.00;0.00;;;16.70;91.20;;;;;;5025499;28;20574;-69
2023/07/01 03:43:33;;;;;;;0.00;0.00;;;16.60;91.10;;;;;;5030418;28;20107;-69
2023/07/01 03:45:58;;;;;;;0.00;0.00;;;16.70;91.40;;;;;;5028492;28;20048;-69
2023/07/01 03:48:24;;;;;;;0.00;0.00;;;16.70;91.30;;;;;;5024533;28;20052;-70
2023/07/01 03:50:50;;;;;;;0.00;0.00;;;16.70;91.10;;;;;;5021048;28;20045;-69
2023/07/01 03:53:16;;;;;;;0.00;0.00;;;16.80;91.00;;;;;;5011398;28;20049;-69
2023/07/01 03:55:41;;;;;;;0.05;0.05;;;16.70;90.80;;;;;;5009873;28;20049;-69
2023/07/01 03:58:07;;;;;;;0.00;0.00;;;16.80;91.00;;;;;;5019978;28;20096;-69
2023/07/01 04:00:34;;;;;;;0.00;0.00;;;16.70;91.10;;;;;;5029066;28;20055;-69
2023/07/01 04:03:05;;;;;;;0.20;0.20;;;16.70;91.30;;;;;;5029181;28;20081;-70
2023/07/01 04:05:34;;;;;;;0.00;0.00;;;16.70;91.50;;;;;;5025677;28;20052;-69
2023/07/01 04:08:00;;;;;;;0.00;0.00;;;16.60;91.70;;;;;;5029027;28;20127;-69
2023/07/01 04:10:26;;;;;;;0.00;0.00;;;16.70;91.50;;;;;;5024764;28;20046;-69
2023/07/01 04:12:51;;;;;;;0.00;0.00;;;16.70;91.60;;;;;;5017760;28;20045;-69
2023/07/01 04:15:17;;;;;;;0.00;0.00;;;16.70;91.70;;;;;;5029301;28;20037;-69
2023/07/01 04:17:44;;;;;;;0.00;0.00;;;16.80;91.90;;;;;;5027983;28;20052;-68
2023/07/01 04:20:11;;;;;;;0.00;0.00;;;16.70;91.70;;;;;;5023171;28;20407;-69
2023/07/01 04:22:37;;;;;;;0.43;0.43;;;16.70;92.10;;;;;;5027185;28;20045;-69
2023/07/01 04:25:03;;;;;;;0.00;0.00;;;16.80;91.90;;;;;;5029579;28;20128;-69
2023/07/01 04:27:29;;;;;;;0.00;0.00;;;16.80;92.10;;;;;;5029442;28;20049;-69
2023/07/01 04:29:55;;;;;;;0.00;0.00;;;16.70;92.40;;;;;;5028532;28;20103;-68
2023/07/01 04:32:21;;;;;;;0.00;0.00;;;16.80;92.50;;;;;;5028610;28;20045;-69
2023/07/01 04:34:46;;;;;;;0.00;0.00;;;16.70;92.30;;;;;;5028691;28;20049;-69
2023/07/01 04:37:12;;;;;;;0.00;0.00;;;16.80;92.40;;;;;;5021230;28;20034;-68
2023/07/01 04:39:37;;;;;;;0.00;0.00;;;16.80;92.40;;;;;;5011016;28;20079;-69
2023/07/01 04:42:03;;;;;;;0.00;0.00;;;16.80;92.40;;;;;;5020587;28;20152;-69
2023/07/01 04:44:29;;;;;;;0.63;0.63;;;16.80;92.70;;;;;;5020653;28;20046;-69
2023/07/01 04:46:54;;;;;;;0.00;0.00;;;16.80;92.80;;;;;;5008385;28;20058;-69
2023/07/01 04:49:20;;;;;;;0.00;0.00;;;16.80;92.60;;;;;;5024760;28;20052;-70
2023/07/01 04:51:45;;;;;;;0.00;0.00;;;16.80;92.70;;;;;;5026564;28;20049;-69
2023/07/01 04:54:11;;;;;;;0.00;0.00;;;16.80;92.70;;;;;;5024598;28;20072;-70
2023/07/01 04:56:37;;;;;;;0.00;0.00;;;16.80;92.40;;;;;;5023175;28;20033;-69
2023/07/01 04:59:03;;;;;;;0.00;0.00;;;16.80;92.50;;;;;;5026243;28;20049;-70
2023/07/01 05:01:28;;;;;;;0.00;0.00;;;16.80;92.70;;;;;;5027383;28;20041;-69
2023/07/01 05:03:54;;;;;;;0.00;0.00;;;16.80;92.90;;;;;;5027346;28;20033;-69
2023/07/01 05:06:19;;;;;;;0.00;0.00;;;16.80;92.90;;;;;;5014493;28;20053;-69
2023/07/01 05:08:45;;;;;;;0.00;0.00;;;16.80;93.20;;;;;;5012114;28;20037;-70
2023/07/01 05:11:11;;;;;;;0.00;0.00;;;16.80;93.50;;;;;;5024193;28;20041;-68
2023/07/01 05:13:37;;;;;;;0.00;0.00;;;16.80;93.20;;;;;;5009318;28;20481;-69
2023/07/01 05:16:03;;;;;;;0.00;0.00;;;16.80;93.40;;;;;;5015306;28;20552;-69
2023/07/01 05:18:28;;;;;;;0.00;0.00;;;16.80;93.40;;;;;;5032120;28;20132;-69
2023/07/01 05:20:54;;;;;;;0.00;0.00;;;16.80;93.40;;;;;;5032026;28;20446;-70
2023/07/01 05:23:19;;;;;;;0.63;0.57;;;16.90;93.50;;;;;;5032484;28;20498;-69
2023/07/01 05:25:45;;;;;;;0.00;0.00;;;16.90;93.50;;;;;;5033164;28;20037;-69
2023/07/01 05:28:10;;;;;;;0.00;0.00;;;16.90;93.50;;;;;;5032794;28;20040;-68
2023/07/01 05:30:37;;;;;;;0.00;0.00;;;16.90;93.50;;;;;;5029434;28;20516;-69
2023/07/01 05:33:03;;;;;;;0.00;0.00;;;16.90;93.50;;;;;;5029640;28;20565;-69
2023/07/01 05:35:28;;;;;;;3.03;0.90;;;17.00;93.40;;;;;;5020466;28;20215;-69
2023/07/01 05:37:54;;;;;;;0.00;0.00;;;17.00;93.10;;;;;;5031910;28;20045;-69
2023/07/01 05:40:19;;;;;;;0.00;0.00;;;17.00;93.00;;;;;;5020383;28;20507;-68
2023/07/01 05:42:45;;;;;;;0.00;0.00;;;17.00;92.90;;;;;;5026953;28;20042;-68
2023/07/01 05:45:11;;;;;;;0.00;0.00;;;17.00;93.00;;;;;;5030864;28;20038;-68
2023/07/01 05:47:37;;;;;;;0.00;0.00;;;17.10;92.90;;;;;;5030573;28;20128;-68
2023/07/01 05:50:03;;;;;;;0.00;0.00;;;17.00;93.10;;;;;;5031688;28;20546;-68
2023/07/01 05:52:29;;;;;;;0.00;0.00;;;17.10;92.90;;;;;;5030488;28;20125;-68
2023/07/01 05:54:55;;;;;;;0.00;0.00;;;17.10;93.10;;;;;;5028799;28;20120;-67
2023/07/01 05:57:20;;;;;;;0.00;0.00;;;17.10;93.40;;;;;;5016107;28;20084;-69
2023/07/01 05:59:46;;;;;;;0.00;0.00;;;17.00;93.50;;;;;;5025262;28;20053;-68
2023/07/01 06:02:11;;;;;;;0.00;0.00;;;17.00;93.40;;;;;;5024536;28;20033;-69
2023/07/01 06:04:37;;;;;;;0.00;0.00;;;17.00;93.40;;;;;;5032179;28;20049;-68
2023/07/01 06:07:03;;;;;;;0.00;0.00;;;17.00;93.30;;;;;;5016007;28;20053;-69
2023/07/01 06:09:28;;;;;;;0.00;0.00;;;17.10;93.20;;;;;;5029738;28;20104;-69
2023/07/01 06:11:54;;;;;;;0.00;0.00;;;17.10;93.30;;;;;;5030266;28;20065;-69
2023/07/01 06:14:19;;;;;;;0.00;0.00;;;17.10;93.20;;;;;;5023690;28;20042;-68
2023/07/01 06:16:45;;;;;;;0.00;0.00;;;17.10;93.20;;;;;;5012004;28;20044;-68
2023/07/01 06:19:10;;;;;;;0.00;0.00;;;17.10;93.20;;;;;;5021286;28;20052;-69
2023/07/01 06:21:36;;;;;;;0.00;0.00;;;17.10;93.10;;;;;;5031596;28;20042;-68
2023/07/01 06:24:02;;;;;;;0.00;0.00;;;17.10;93.50;;;;;;5031812;28;20045;-70
2023/07/01 06:26:28;;;;;;;0.00;0.00;;;17.10;93.30;;;;;;5031525;28;20038;-68
2023/07/01 06:28:54;;;;;;;0.10;0.10;;;17.10;93.20;;;;;;5030913;28;20565;-68
2023/07/01 06:31:19;;;;;;;0.00;0.00;;;17.20;93.30;;;;;;5022785;28;20146;-68
2023/07/01 06:33:45;;;;;;;0.00;0.00;;;17.20;93.30;;;;;;5017971;28;20136;-69
2023/07/01 06:36:12;;;;;;;0.00;0.00;;;17.20;93.60;;;;;;5028488;28;20076;-69
2023/07/01 06:38:38;;;;;;;0.00;0.00;;;17.20;93.60;;;;;;5026466;28;20061;-68
2023/07/01 06:41:04;;;;;;;0.00;0.00;;;17.20;93.50;;;;;;5026146;28;20050;-69
2023/07/01 06:43:29;;;;;;;0.00;0.00;;;17.30;93.60;;;;;;5026430;28;20088;-68
2023/07/01 06:45:55;;;;;;;0.00;0.00;;;17.30;93.60;;;;;;5022653;28;20125;-68
2023/07/01 06:48:21;;;;;;;0.03;0.03;;;17.30;93.50;;;;;;5026483;28;20054;-68
2023/07/01 06:50:46;;;;;;;0.00;0.00;;;17.30;93.70;;;;;;5022453;28;20146;-68
2023/07/01 06:53:12;;;;;;;0.00;0.00;;;17.30;93.60;;;;;;5029383;28;20054;-68
2023/07/01 06:55:37;;;;;;;0.00;0.00;;;17.40;93.80;;;;;;5030898;28;20153;-69
2023/07/01 06:58:03;;;;;;;0.00;0.00;;;17.40;93.80;;;;;;5025108;28;20045;-68
2023/07/01 07:00:30;;;;;;;0.00;0.00;;;17.40;93.70;;;;;;5029485;28;20037;-69
2023/07/01 07:02:56;;;;;;;0.00;0.00;;;17.50;93.80;;;;;;5027782;28;20120;-69
2023/07/01 07:05:21;;;;;;;0.00;0.00;;;17.50;93.50;;;;;;5012851;28;20551;-68
2023/07/01 07:07:47;;;;;;;0.00;0.00;;;17.50;93.70;;;;;;5030173;28;20068;-69
2023/07/01 07:10:13;;;;;;;0.00;0.00;;;17.50;93.60;;;;;;5030303;28;20049;-69
2023/07/01 07:12:38;;;;;;;0.00;0.00;;;17.60;93.90;;;;;;5028546;28;20184;-68
2023/07/01 07:15:04;;;;;;;0.00;0.00;;;17.60;93.90;;;;;;5029184;28;20053;-68
2023/07/01 07:17:30;;;;;;;0.00;0.00;;;17.60;93.90;;;;;;5029223;28;20073;-67
2023/07/01 07:19:55;;;;;;;0.00;0.00;;;17.60;94.00;;;;;;5018161;28;20724;-68
2023/07/01 07:22:21;;;;;;;0.00;0.00;;;17.60;94.00;;;;;;5028496;28;20049;-68
2023/07/01 07:24:47;;;;;;;0.00;0.00;;;17.60;93.70;;;;;;5029587;28;20064;-69
2023/07/01 07:27:12;;;;;;;0.00;0.00;;;17.60;93.70;;;;;;5028277;28;20045;-69
2023/07/01 07:29:39;;;;;;;0.00;0.00;;;17.60;93.70;;;;;;5029195;28;20050;-69
2023/07/01 07:32:05;;;;;;;0.00;0.00;;;17.60;93.60;;;;;;5029680;28;20056;-68
2023/07/01 07:34:32;;;;;;;0.00;0.00;;;17.60;93.80;;;;;;5029678;28;20049;-69
2023/07/01 07:36:57;;;;;;;0.00;0.00;;;17.70;93.90;;;;;;5027999;28;20087;-68
2023/07/01 07:39:23;;;;;;;0.00;0.00;;;17.60;94.00;;;;;;5029631;28;20084;-68
2023/07/01 07:41:49;;;;;;;0.00;0.00;;;17.60;93.90;;;;;;5011716;28;20932;-68
2023/07/01 07:44:15;;;;;;;0.20;0.20;;;17.70;94.00;;;;;;5027016;28;20061;-68
2023/07/01 07:46:42;;;;;;;0.00;0.00;;;17.70;94.00;;;;;;5029694;28;20103;-67
2023/07/01 07:49:08;;;;;;;0.00;0.00;;;17.70;94.00;;;;;;5030103;28;20046;-67
2023/07/01 07:51:33;;;;;;;0.00;0.00;;;17.70;94.00;;;;;;5028709;28;20402;-68
2023/07/01 07:53:59;;;;;;;0.00;0.00;;;17.70;94.00;;;;;;5029079;28;20076;-67
2023/07/01 07:56:25;;;;;;;0.00;0.00;;;17.80;94.10;;;;;;5027150;28;20037;-67
2023/07/01 07:58:50;;;;;;;0.00;0.00;;;17.70;94.10;;;;;;5022434;28;20129;-68
2023/07/01 08:01:16;;;;;;;0.00;0.00;;;17.70;94.10;;;;;;5025844;28;20052;-68
2023/07/01 08:03:41;;;;;;;0.00;0.00;;;17.70;94.10;;;;;;5025858;28;20046;-69
2023/07/01 08:06:07;;;;;;;0.00;0.00;;;17.80;94.20;;;;;;5025900;28;20045;-69
2023/07/01 08:08:34;;;;;;;0.00;0.00;;;17.80;94.30;;;;;;5027926;28;20410;-68
2023/07/01 08:11:00;;;;;;;0.00;0.00;;;17.80;94.60;;;;;;5026358;28;20194;-71
2023/07/01 08:13:29;;;;;;;0.00;0.00;;;17.80;94.30;;;;;;5025830;28;20053;-68
2023/07/01 08:15:55;;;;;;;0.00;0.00;;;17.80;94.20;;;;;;5026677;28;20037;-66
2023/07/01 08:18:20;;;;;;;0.00;0.00;;;17.90;94.30;;;;;;5023209;28;20057;-66
2023/07/01 08:20:46;;;;;;;0.00;0.00;;;17.90;94.30;;;;;;5025553;28;20052;-70
2023/07/01 08:23:13;;;;;;;0.00;0.00;;;17.80;94.20;;;;;;5026209;28;20061;-70
2023/07/01 08:25:40;;;;;;;0.00;0.00;;;17.90;94.20;;;;;;5022166;28;20124;-70
2023/07/01 08:28:06;;;;;;;0.00;0.00;;;17.90;94.00;;;;;;5020375;28;20152;-70
2023/07/01 08:30:31;;;;;;;0.00;0.00;;;17.90;93.90;;;;;;5023733;28;20510;-68
2023/07/01 08:32:57;;;;;;;0.00;0.00;;;17.90;94.00;;;;;;5025701;28;20095;-68
2023/07/01 08:35:22;;;;;;;0.00;0.00;;;18.00;93.90;;;;;;5024376;28;20509;-68
2023/07/01 08:37:48;;;;;;;0.00;0.00;;;17.90;94.00;;;;;;5027305;28;20552;-68
2023/07/01 08:40:14;;;;;;;0.00;0.00;;;17.90;94.00;;;;;;5025876;28;20136;-69
2023/07/01 08:42:48;;;;;;;0.00;0.00;;;18.00;94.10;;;;;;5026912;28;20034;-69
2023/07/01 08:45:14;;;;;;;0.00;0.00;;;17.90;94.10;;;;;;5026967;28;20496;-69
2023/07/01 08:47:40;;;;;;;0.00;0.00;;;18.00;94.00;;;;;;5026679;28;20049;-68
2023/07/01 08:50:07;;;;;;;0.00;0.00;;;18.00;94.20;;;;;;5024637;28;20053;-67
2023/07/01 08:52:41;;;;;;;0.00;0.00;;;18.10;94.10;;;;;;5024814;28;20041;-68
2023/07/01 08:55:09;;;;;;;0.00;0.00;;;18.10;94.00;;;;;;5024124;28;20049;-68
2023/07/01 08:57:37;;;;;;;0.00;0.00;;;18.10;94.20;;;;;;5025100;28;20501;-68
2023/07/01 09:00:04;;;;;;;0.00;0.00;;;18.10;94.10;;;;;;5022365;28;20114;-68
2023/07/01 09:02:32;;;;;;;0.00;0.00;;;18.10;94.20;;;;;;5024969;28;20046;-67
2023/07/01 09:04:58;;;;;;;0.00;0.00;;;18.10;94.10;;;;;;5026491;28;20510;-68
2023/07/01 09:07:24;;;;;;;0.00;0.00;;;18.10;94.20;;;;;;5024945;28;20053;-68
2023/07/01 09:09:49;;;;;;;0.00;0.00;;;18.00;94.20;;;;;;5026614;28;20478;-67
2023/07/01 09:12:15;;;;;;;0.00;0.00;;;18.00;94.20;;;;;;5026186;28;20045;-68
2023/07/01 09:15:00;;;;;;;0.00;0.00;;;18.00;93.90;;;;;;5029572;28;20057;-68
2023/07/01 09:17:32;;;;;;;0.00;0.00;;;17.90;93.90;;;;;;5024610;28;20092;-68
2023/07/01 09:20:06;;;;;;;0.00;0.00;;;17.80;93.90;;;;;;5020408;28;20053;-68
2023/07/01 09:22:34;;;;;;;0.00;0.00;;;17.90;94.00;;;;;;5025157;28;20403;-67
2023/07/01 09:25:00;;;;;;;1.10;0.80;;;17.90;94.00;;;;;;5025266;28;20132;-67
2023/07/01 09:27:46;;;;;;;0.00;0.00;;;18.00;94.00;;;;;;5025996;28;20168;-67
2023/07/01 09:30:20;;;;;;;0.00;0.00;;;18.00;94.20;;;;;;5024559;28;20818;-68
2023/07/01 09:32:47;;;;;;;0.00;0.00;;;18.10;94.20;;;;;;5021426;28;20525;-69
2023/07/01 09:35:13;;;;;;;0.00;0.00;;;18.20;94.30;;;;;;5024976;28;20127;-69
2023/07/01 09:37:38;;;;;;;1.90;0.98;;;18.20;94.30;;;;;;5025667;28;20506;-69
2023/07/01 09:40:21;;;;;;;0.00;0.00;;;18.20;94.30;;;;;;5025681;28;20041;-68
2023/07/01 09:42:55;;;;;;;0.28;0.28;;;18.40;94.20;;;;;;5026235;28;20054;-69
2023/07/01 09:45:21;;;;;;;0.17;0.17;;;18.40;94.20;;;;;;5026714;28;20141;-68
2023/07/01 09:47:52;;;;;;;0.00;0.00;;;18.50;94.20;;;;;;5025529;28;20153;-69
2023/07/01 09:50:26;;;;;;;0.00;0.00;;;18.50;94.00;;;;;;5025863;28;20567;-69
2023/07/01 09:52:53;;;;;;;0.00;0.00;;;18.50;94.00;;;;;;5026402;28;20055;-68
2023/07/01 09:55:19;;;;;;;0.00;0.00;;;18.50;93.90;;;;;;5026090;28;20052;-70
2023/07/01 09:57:45;;;;;;;0.00;0.00;;;18.50;93.70;;;;;;5025350;28;20037;-73
2023/07/01 10:00:17;;;;;;;0.30;0.30;;;18.50;93.60;;;;;;5025739;28;20733;-69
2023/07/01 10:02:44;;;;;;;0.00;0.00;;;18.50;93.30;;;;;;5025864;28;20080;-66
2023/07/01 10:05:14;;;;;;;0.00;0.00;;;18.50;93.40;;;;;;5028422;28;20042;-66
2023/07/01 10:07:40;;;;;;;0.00;0.00;;;18.40;93.40;;;;;;5028392;28;20061;-67
2023/07/01 10:10:13;;;;;;;0.38;0.38;;;18.50;93.40;;;;;;5029615;28;20761;-66
2023/07/01 10:12:41;;;;;;;0.10;0.10;;;18.50;93.30;;;;;;5024193;28;20122;-67
2023/07/01 10:15:09;;;;;;;0.00;0.00;;;18.50;93.20;;;;;;5029619;28;20045;-67
2023/07/01 10:17:46;;;;;;;0.00;0.00;;;18.50;93.00;;;;;;5025714;28;20160;-66
2023/07/01 10:20:33;;;;;;;0.00;0.00;;;18.50;92.80;;;;;;5027964;28;20057;-67
2023/07/01 10:23:03;;;;;;;0.00;0.00;;;18.50;92.80;;;;;;5027611;28;20057;-66
2023/07/01 10:25:34;;;;;;;0.00;0.00;;;18.60;92.70;;;;;;5027024;28;20077;-67
2023/07/01 10:28:13;;;;;;;0.00;0.00;;;18.60;92.50;;;;;;5028040;28;20036;-66
2023/07/01 10:30:42;;;;;;;0.10;0.10;;;18.60;92.60;;;;;;5026685;28;20047;-67
2023/07/01 10:33:35;;;;;;;0.00;0.00;;;18.70;92.40;;;;;;5027175;28;20044;-67
2023/07/01 10:36:04;;;;;;;0.43;0.25;;;18.80;92.40;;;;;;5027378;28;20506;-66
2023/07/01 10:38:30;;;;;;;0.00;0.00;;;18.80;92.30;;;;;;5027946;28;20136;-67
2023/07/01 10:40:56;;;;;;;0.00;0.00;;;18.80;92.10;;;;;;5028759;28;20187;-66
2023/07/01 10:43:29;;;;;;;0.43;0.20;;;18.80;92.00;;;;;;5028644;28;20523;-67
2023/07/01 10:46:13;;;;;;;0.00;0.00;;;18.80;91.60;;;;;;5025881;28;20126;-67
2023/07/01 10:49:04;;;;;;;0.00;0.00;;;18.70;91.30;;;;;;5025338;28;20033;-66
2023/07/01 10:51:31;;;;;;;0.00;0.00;;;18.70;90.80;;;;;;5025607;28;20083;-66
2023/07/01 10:54:05;;;;;;;0.00;0.00;;;18.70;90.90;;;;;;5026612;28;20041;-66
2023/07/01 10:56:37;;;;;;;0.45;0.45;;;18.60;90.70;;;;;;5027003;28;20072;-66
2023/07/01 10:59:18;;;;;;;;;;;18.70;90.60;;;;;;5028051;28;20041;-66
2023/07/01 11:01:45;;;;;;;1.00;0.43;;;18.70;90.50;;;;;;5027210;28;19968;-66
2023/07/01 11:04:11;;;;;;;0.00;0.00;;;18.60;90.10;;;;;;5027259;28;20406;-66
2023/07/01 11:06:53;;;;;;;1.20;0.85;;;18.70;90.50;;;;;;5020919;28;20111;-66
2023/07/01 11:09:35;;;;;;;0.00;0.00;;;18.70;90.80;;;;;;5026624;28;20045;-66
2023/07/01 11:12:02;;;;;;;0.00;0.00;;;18.90;90.70;;;;;;5025995;28;20057;-66
2023/07/01 11:14:35;;;;;;;0.00;0.00;;;19.00;90.10;;;;;;5024767;28;20119;-66
2023/07/01 11:17:10;;;;;;;0.00;0.00;;;19.10;90.20;;;;;;5025434;28;20060;-67
2023/07/01 11:19:36;;;;;;;0.55;0.15;;;19.00;89.70;;;;;;5021834;28;20088;-66
2023/07/01 11:22:02;;;;;;;2.50;1.45;;;19.00;88.60;;;;;;5027844;28;20068;-66
2023/07/01 11:24:29;;;;;;;0.00;0.00;;;18.90;88.10;;;;;;5027519;28;20041;-67
2023/07/01 11:27:08;;;;;;;0.00;0.00;;;19.00;88.20;;;;;;5023483;28;20056;-66
2023/07/01 11:29:34;;;;;;;0.00;0.00;;;18.80;87.60;;;;;;5027300;28;20133;-66
2023/07/01 11:32:03;;;;;;;0.00;0.00;;;18.90;88.00;;;;;;5027428;28;20045;-66
2023/07/01 11:34:29;;;;;;;0.43;0.43;;;18.90;87.90;;;;;;5026717;28;20083;-66
2023/07/01 11:36:57;;;;;;;0.03;0.03;;;19.00;87.70;;;;;;5027257;28;20041;-66
2023/07/01 11:39:23;;;;;;;0.03;0.03;;;19.10;87.50;;;;;;5026489;28;20072;-67
2023/07/01 11:41:51;;;;;;;0.00;0.00;;;19.10;87.10;;;;;;5027855;28;20053;-66
2023/07/01 11:44:19;;;;;;;0.00;0.00;;;19.10;85.80;;;;;;5027328;28;20041;-66
2023/07/01 11:46:46;;;;;;;0.00;0.00;;;19.20;86.10;;;;;;5027220;28;20037;-66
2023/07/01 11:49:17;;;;;;;0.00;0.00;;;19.30;86.60;;;;;;5026591;28;20049;-66
2023/07/01 11:51:56;;;;;;;0.15;0.15;;;19.40;86.00;;;;;;5027146;28;20073;-66
2023/07/01 11:54:44;;;;;;;0.00;0.00;;;19.50;85.80;;;;;;5025495;28;20053;-67
2023/07/01 11:57:14;;;;;;;0.10;0.10;;;19.60;86.40;;;;;;5024183;28;20608;-67
2023/07/01 11:59:41;;;;;;;0.15;0.15;;;19.50;85.00;;;;;;5021231;28;20045;-67
2023/07/01 12:02:08;;;;;;;0.00;0.00;;;19.40;84.40;;;;;;5026559;28;20042;-66
2023/07/01 12:04:35;;;;;;;0.00;0.00;;;19.50;84.20;;;;;;5025967;28;20770;-67
2023/07/01 12:07:17;;;;;;;0.00;0.00;;;19.50;84.50;;;;;;5026926;28;20145;-67
2023/07/01 12:09:45;;;;;;;0.00;0.00;;;19.60;83.70;;;;;;5025433;28;20057;-66
2023/07/01 12:12:14;;;;;;;0.30;0.30;;;19.60;83.20;;;;;;5025291;28;20042;-66
2023/07/01 12:14:41;;;;;;;0.30;0.30;;;19.50;82.80;;;;;;5027073;28;20077;-67
2023/07/01 12:17:08;;;;;;;0.00;0.00;;;19.50;82.60;;;;;;5027872;28;20567;-66
2023/07/01 12:19:34;;;;;;;0.00;0.00;;;19.60;82.90;;;;;;5025578;28;20076;-69
2023/07/01 12:22:00;;;;;;;0.43;0.25;;;19.80;83.50;;;;;;5026170;28;20725;-66
2023/07/01 12:24:30;;;;;;;0.00;0.00;;;20.00;82.80;;;;;;5025841;28;20045;-66
2023/07/01 12:26:58;;;;;;;0.00;0.00;;;20.00;82.70;;;;;;5024495;28;20042;-66
2023/07/01 12:29:25;;;;;;;0.00;0.00;;;19.90;81.00;;;;;;5026835;28;20053;-67
2023/07/01 12:31:53;;;;;;;0.00;0.00;;;19.70;81.70;;;;;;5024459;28;20037;-67
2023/07/01 12:34:19;;;;;;;0.00;0.00;;;19.70;82.30;;;;;;5007428;28;20038;-68
2023/07/01 12:36:46;;;;;;;0.00;0.00;;;19.60;82.40;;;;;;5026840;28;20044;-68
2023/07/01 12:39:13;;;;;;;0.00;0.00;;;19.60;82.40;;;;;;5026337;28;20490;-66
2023/07/01 12:41:39;;;;;;;0.20;0.20;;;19.40;81.60;;;;;;5023797;28;20042;-66
2023/07/01 12:44:07;;;;;;;0.00;0.00;;;19.30;80.10;;;;;;5026769;28;20045;-66
2023/07/01 12:46:33;;;;;;;0.10;0.10;;;19.20;80.80;;;;;;5026824;28;20500;-66
2023/07/01 12:49:00;;;;;;;0.10;0.10;;;19.30;80.80;;;;;;5024155;28;20053;-66
2023/07/01 12:51:27;;;;;;;0.00;0.00;;;19.30;81.20;;;;;;5021337;28;20082;-66